createdAt,value
2023-03-26T00:00:57.594Z,98974.09
2023-03-26T00:03:35.164Z,98964.63
2023-03-26T00:06:17.132Z,98965.34
2023-03-26T00:08:54.048Z,98952.91
2023-03-26T00:11:27.252Z,98965.44
2023-03-26T00:14:02.085Z,98968.72
2023-03-26T00:16:33.735Z,98963.47
2023-03-26T00:19:05.147Z,98955.63
2023-03-26T00:22:02.232Z,98957.81
2023-03-26T00:24:33.365Z,98965.78
2023-03-26T00:28:30.921Z,98981.75
2023-03-26T00:31:24.921Z,98988.53
2023-03-26T00:37:10.202Z,98994.75
2023-03-26T00:39:44.845Z,99005.44
2023-03-26T00:42:21.440Z,99009.94
2023-03-26T00:45:01.296Z,99020.94
2023-03-26T00:47:36.986Z,99016.88
2023-03-26T00:50:20.559Z,99017.25
2023-03-26T00:53:05.508Z,99016.78
2023-03-26T00:55:37.656Z,99020.28
2023-03-26T00:58:13.607Z,99014.91
2023-03-26T01:00:46.949Z,99013.44
2023-03-26T01:03:27.629Z,99030.56
2023-03-26T01:06:08.878Z,99029.75
2023-03-26T01:08:48.430Z,99035.69
2023-03-26T01:11:25.522Z,99042.53
2023-03-26T01:14:24.985Z,99040.91
2023-03-26T01:17:09.556Z,99046.88
2023-03-26T01:20:09.682Z,99052.22
2023-03-26T01:22:55.510Z,99058.41
2023-03-26T01:25:39.317Z,99078.84
2023-03-26T01:28:15.408Z,99078.81
2023-03-26T01:31:06.568Z,99079.13
2023-03-26T01:34:43.004Z,99076.56
2023-03-26T01:37:48.966Z,99083.84
2023-03-26T01:40:52.206Z,99081.03
2023-03-26T01:48:18.660Z,99090.88
2023-03-26T01:57:27.575Z,99104.63
2023-03-26T02:20:19.928Z,99137.56
2023-03-26T02:22:52.285Z,99127.22
2023-03-26T02:25:25.714Z,99121.00
2023-03-26T02:28:07.751Z,99128.50
2023-03-26T02:30:40.756Z,99123.69
2023-03-26T02:33:16.714Z,99132.81
2023-03-26T02:35:49.754Z,99145.44
2023-03-26T02:38:33.368Z,99130.91
2023-03-26T02:41:20.237Z,99138.41
2023-03-26T02:44:07.627Z,99125.84
2023-03-26T02:47:08.079Z,99130.63
2023-03-26T02:50:05.626Z,99133.69
2023-03-26T02:53:07.870Z,99109.06
2023-03-26T02:55:45.720Z,99137.38
2023-03-26T02:58:32.542Z,99120.81
2023-03-26T03:01:07.862Z,99122.03
2023-03-26T03:03:53.458Z,99143.81
2023-03-26T03:07:02.706Z,99139.63
2023-03-26T03:09:42.767Z,99121.94
2023-03-26T03:12:42.732Z,99156.88
2023-03-26T03:15:15.654Z,99146.59
2023-03-26T03:17:46.988Z,99169.50
2023-03-26T03:20:20.403Z,99156.94
2023-03-26T03:22:54.429Z,99163.94
2023-03-26T03:25:29.815Z,99177.06
2023-03-26T03:28:32.757Z,99182.22
2023-03-26T03:31:11.540Z,99174.03
2023-03-26T03:33:44.654Z,99186.47
2023-03-26T03:36:24.968Z,99181.25
2023-03-26T03:39:06.254Z,99184.09
2023-03-26T03:41:41.205Z,99189.84
2023-03-26T03:44:20.793Z,99187.50
2023-03-26T03:47:07.037Z,99188.81
2023-03-26T03:49:41.299Z,99196.47
2023-03-26T03:52:12.870Z,99200.00
2023-03-26T03:54:47.438Z,99195.44
2023-03-26T03:57:28.291Z,99200.13
2023-03-26T04:00:17.882Z,99211.06
2023-03-26T04:03:34.646Z,99217.84
2023-03-26T04:06:16.644Z,99243.69
2023-03-26T04:08:53.396Z,99234.81
2023-03-26T04:11:26.539Z,99242.34
2023-03-26T04:14:25.153Z,99244.94
2023-03-26T04:17:09.448Z,99247.31
2023-03-26T04:20:08.300Z,99244.59
2023-03-26T04:22:44.729Z,99246.22
2023-03-26T04:34:52.010Z,99259.19
2023-03-26T04:38:21.040Z,99260.84
2023-03-26T04:40:55.612Z,99268.16
2023-03-26T04:43:48.714Z,99282.69
2023-03-26T04:46:44.006Z,99291.72
2023-03-26T04:49:27.237Z,99288.19
2023-03-26T04:52:04.568Z,99291.63
2023-03-26T04:55:55.648Z,99305.56
2023-03-26T04:58:53.168Z,99298.13
2023-03-26T05:01:32.705Z,99313.38
2023-03-26T05:04:07.151Z,99302.50
2023-03-26T05:06:43.364Z,99304.63
2023-03-26T05:09:36.731Z,99310.56
2023-03-26T05:12:40.173Z,99318.13
2023-03-26T05:15:19.833Z,99316.50
2023-03-26T05:18:11.652Z,99320.94
2023-03-26T05:20:50.432Z,99325.44
2023-03-26T05:23:23.495Z,99322.38
2023-03-26T05:26:13.457Z,99322.81
2023-03-26T05:28:47.952Z,99324.09
2023-03-26T05:31:32.012Z,99328.13
2023-03-26T05:34:08.697Z,99335.69
2023-03-26T05:36:45.068Z,99334.84
2023-03-26T05:39:49.618Z,99351.88
2023-03-26T05:42:58.036Z,99358.16
2023-03-26T05:45:53.755Z,99366.31
2023-03-26T05:48:44.431Z,99373.91
2023-03-26T05:51:17.012Z,99385.81
2023-03-26T05:54:05.819Z,99371.84
2023-03-26T05:57:01.617Z,99385.34
2023-03-26T05:59:56.146Z,99380.28
2023-03-26T06:02:51.020Z,99387.00
2023-03-26T06:06:19.671Z,99387.88
2023-03-26T06:09:09.154Z,99393.69
2023-03-26T06:11:44.858Z,99398.91
2023-03-26T06:14:19.091Z,99406.66
2023-03-26T06:17:19.989Z,99403.94
2023-03-26T06:20:18.603Z,99415.00
2023-03-26T06:22:51.871Z,99425.06
2023-03-26T06:25:28.231Z,99427.72
2023-03-26T06:28:19.688Z,99430.31
2023-03-26T06:31:12.118Z,99439.38
2023-03-26T06:33:48.981Z,99440.84
2023-03-26T06:36:23.245Z,99439.25
2023-03-26T06:38:55.621Z,99441.50
2023-03-26T06:41:28.071Z,99450.53
2023-03-26T06:44:13.833Z,99454.06
2023-03-26T06:47:15.507Z,99454.16
2023-03-26T06:50:05.752Z,99453.50
2023-03-26T06:52:45.564Z,99467.28
2023-03-26T06:55:40.394Z,99481.84
2023-03-26T06:58:34.446Z,99486.91
2023-03-26T07:01:24.440Z,99495.22
2023-03-26T07:04:44.212Z,99502.81
2023-03-26T07:07:37.317Z,99505.28
2023-03-26T07:10:37.743Z,99503.03
2023-03-26T07:13:41.982Z,99502.06
2023-03-26T07:16:35.917Z,99503.41
2023-03-26T07:19:27.897Z,99506.44
2023-03-26T07:22:05.491Z,99500.31
2023-03-26T07:25:12.202Z,99503.19
2023-03-26T07:28:32.338Z,99511.09
2023-03-26T07:31:45.525Z,99526.25
2023-03-26T07:35:08.404Z,99523.59
2023-03-26T07:39:09.074Z,99521.47
2023-03-26T07:42:57.331Z,99536.34
2023-03-26T07:45:49.125Z,99537.13
2023-03-26T07:48:48.976Z,99541.69
2023-03-26T07:51:49.678Z,99549.31
2023-03-26T07:54:44.143Z,99554.97
2023-03-26T07:58:25.028Z,99550.22
2023-03-26T08:01:55.518Z,99560.78
2023-03-26T08:05:24.274Z,99579.94
2023-03-26T08:08:19.260Z,99579.56
2023-03-26T08:11:21.560Z,99585.03
2023-03-26T08:14:17.264Z,99577.06
2023-03-26T08:16:57.958Z,99592.72
2023-03-26T08:20:04.079Z,99585.66
2023-03-26T08:22:53.500Z,99599.97
2023-03-26T08:25:38.184Z,99593.19
2023-03-26T08:28:26.074Z,99604.03
2023-03-26T08:31:04.578Z,99607.03
2023-03-26T08:33:37.778Z,99612.47
2023-03-26T08:36:16.948Z,99604.75
2023-03-26T08:38:53.088Z,99615.09
2023-03-26T08:41:55.709Z,99619.53
2023-03-26T08:44:35.373Z,99625.75
2023-03-26T08:47:40.342Z,99636.16
2023-03-26T08:50:47.477Z,99633.72
2023-03-26T08:53:46.525Z,99637.00
2023-03-26T08:56:45.852Z,99632.97
2023-03-26T08:59:32.826Z,99635.06
2023-03-26T09:02:43.297Z,99639.44
2023-03-26T09:05:51.654Z,99630.41
2023-03-26T09:09:04.158Z,99627.13
2023-03-26T09:12:04.932Z,99644.19
2023-03-26T09:14:53.315Z,99643.09
2023-03-26T09:17:49.526Z,99655.94
2023-03-26T09:20:23.380Z,99648.22
2023-03-26T09:23:37.537Z,99669.75
2023-03-26T09:26:44.613Z,99666.25
2023-03-26T09:29:27.213Z,99678.97
2023-03-26T09:32:48.010Z,99683.22
2023-03-26T09:35:51.462Z,99680.72
2023-03-26T09:38:51.638Z,99710.22
2023-03-26T09:41:47.758Z,99714.09
2023-03-26T09:45:11.076Z,99708.69
2023-03-26T09:48:12.208Z,99723.19
2023-03-26T09:51:09.731Z,99743.34
2023-03-26T09:54:09.142Z,99750.81
2023-03-26T09:57:06.004Z,99767.41
2023-03-26T10:00:08.776Z,99756.97
2023-03-26T10:03:12.336Z,99759.56
2023-03-26T10:06:15.784Z,99784.00
2023-03-26T10:09:06.291Z,99781.81
2023-03-26T10:11:55.857Z,99789.28
2023-03-26T10:14:47.753Z,99789.81
2023-03-26T10:18:27.728Z,99795.28
2023-03-26T10:21:22.796Z,99801.97
2023-03-26T10:24:13.869Z,99815.66
2023-03-26T10:27:24.836Z,99823.03
2023-03-26T10:30:44.223Z,99820.41
2023-03-26T10:33:36.648Z,99836.25
2023-03-26T10:36:33.160Z,99852.16
2023-03-26T10:39:53.206Z,99858.59
2023-03-26T10:43:09.343Z,99862.84
2023-03-26T10:46:17.953Z,99884.84
2023-03-26T10:49:40.830Z,99897.97
2023-03-26T10:52:27.993Z,99897.97
2023-03-26T10:55:19.802Z,99913.66
2023-03-26T10:58:02.945Z,99907.72
2023-03-26T11:00:45.222Z,99914.31
2023-03-26T11:03:41.079Z,99926.28
2023-03-26T11:06:39.091Z,99932.69
2023-03-26T11:09:25.379Z,99937.00
2023-03-26T11:12:26.897Z,99941.16
2023-03-26T11:16:04.609Z,99942.81
2023-03-26T11:18:55.704Z,99946.09
2023-03-26T11:21:35.756Z,99950.25
2023-03-26T11:24:41.175Z,99962.66
2023-03-26T11:28:08.961Z,99960.97
2023-03-26T11:31:38.418Z,99970.06
2023-03-26T11:34:17.140Z,99970.31
2023-03-26T11:36:53.220Z,99975.84
2023-03-26T11:39:32.904Z,99976.41
2023-03-26T11:42:15.966Z,99991.72
2023-03-26T11:44:57.973Z,99988.00
2023-03-26T11:47:52.769Z,99986.63
2023-03-26T11:50:37.389Z,99995.88
2023-03-26T11:53:23.480Z,99990.09
2023-03-26T11:56:31.522Z,99996.00
2023-03-26T11:59:08.633Z,99990.09
2023-03-26T12:01:55.080Z,100001.09
2023-03-26T12:04:48.468Z,100004.91
2023-03-26T12:07:33.910Z,100008.28
2023-03-26T12:10:19.521Z,100009.09
2023-03-26T12:12:48.697Z,100004.34
2023-03-26T12:15:34.028Z,100007.22
2023-03-26T12:18:25.634Z,100009.09
2023-03-26T12:21:19.746Z,100010.81
2023-03-26T12:24:07.385Z,100014.31
2023-03-26T12:26:43.819Z,100006.22
2023-03-26T12:29:19.153Z,99999.66
2023-03-26T12:31:59.575Z,100002.25
2023-03-26T12:34:44.120Z,99999.81
2023-03-26T12:37:48.684Z,99997.16
2023-03-26T12:40:44.463Z,99996.50
2023-03-26T12:44:56.530Z,100003.03
2023-03-26T12:47:58.374Z,99993.69
2023-03-26T12:49:35.396Z,100009.97
2023-03-26T12:52:34.221Z,99995.66
2023-03-26T12:55:36.072Z,100002.69
2023-03-26T12:58:48.823Z,100000.84
2023-03-26T13:01:35.925Z,100005.88
2023-03-26T13:04:37.627Z,100016.72
2023-03-26T13:07:33.460Z,100014.28
2023-03-26T13:10:34.565Z,100015.19
2023-03-26T13:13:42.948Z,100023.78
2023-03-26T13:16:17.848Z,100029.38
2023-03-26T13:19:04.893Z,100037.88
2023-03-26T13:21:51.219Z,100036.72
2023-03-26T13:24:37.513Z,100062.75
2023-03-26T13:27:29.507Z,100049.09
2023-03-26T13:30:23.527Z,100050.38
2023-03-26T13:33:10.472Z,100036.56
2023-03-26T13:36:23.922Z,100046.69
2023-03-26T13:39:11.758Z,100048.34
2023-03-26T13:41:57.541Z,100061.44
2023-03-26T13:45:04.318Z,100067.13
2023-03-26T13:47:49.705Z,100060.78
2023-03-26T13:50:29.949Z,100058.56
2023-03-26T13:53:07.933Z,100076.25
2023-03-26T13:55:57.615Z,100081.19
2023-03-26T13:58:57.608Z,100078.66
2023-03-26T14:01:51.131Z,100075.63
2023-03-26T14:04:45.642Z,100080.34
2023-03-26T14:07:33.299Z,100091.16
2023-03-26T14:10:15.826Z,100072.88
2023-03-26T14:13:17.859Z,100075.53
2023-03-26T14:16:00.025Z,100078.22
2023-03-26T14:19:07.594Z,100076.00
2023-03-26T14:21:55.388Z,100063.50
2023-03-26T14:25:01.557Z,100068.47
2023-03-26T14:28:07.327Z,100066.03
2023-03-26T14:31:09.712Z,100078.09
2023-03-26T14:33:57.959Z,100074.56
2023-03-26T14:36:33.591Z,100088.44
2023-03-26T14:39:29.682Z,100094.44
2023-03-26T14:42:21.465Z,100093.72
2023-03-26T14:45:05.694Z,100092.50
2023-03-26T14:48:06.706Z,100091.09
2023-03-26T14:51:21.071Z,100093.69
2023-03-26T14:54:05.396Z,100104.63
2023-03-26T15:00:47.690Z,100099.56
2023-03-26T15:04:07.020Z,100108.84
2023-03-26T15:07:09.417Z,100097.13
2023-03-26T15:10:09.624Z,100087.81
2023-03-26T15:13:08.434Z,100091.50
2023-03-26T15:16:36.121Z,100102.38
2023-03-26T15:19:43.506Z,100102.81
2023-03-26T15:22:52.603Z,100105.78
2023-03-26T15:26:05.824Z,100106.94
2023-03-26T15:29:15.752Z,100110.13
2023-03-26T15:32:03.843Z,100107.81
2023-03-26T15:35:03.572Z,100106.56
2023-03-26T15:37:55.742Z,100103.44
2023-03-26T15:40:27.668Z,100113.53
2023-03-26T15:43:14.150Z,100108.53
2023-03-26T15:46:20.316Z,100107.28
2023-03-26T15:49:13.716Z,100096.31
2023-03-26T15:52:19.562Z,100097.25
2023-03-26T15:55:08.777Z,100097.91
2023-03-26T15:58:05.229Z,100094.88
2023-03-26T16:01:21.007Z,100099.72
2023-03-26T16:04:21.665Z,100092.13
2023-03-26T16:08:17.983Z,100108.34
2023-03-26T16:12:04.531Z,100093.06
2023-03-26T16:14:51.245Z,100093.19
2023-03-26T16:17:25.268Z,100095.84
2023-03-26T16:21:30.884Z,100098.31
2023-03-26T16:25:47.444Z,100103.09
2023-03-26T16:29:33.179Z,100078.66
2023-03-26T16:32:44.011Z,100087.44
2023-03-26T16:35:53.394Z,100098.25
2023-03-26T16:48:21.702Z,100079.56
2023-03-26T16:51:33.418Z,100082.78
2023-03-26T16:54:33.254Z,100079.25
2023-03-26T16:57:29.997Z,100089.16
2023-03-26T17:00:56.522Z,100068.28
2023-03-26T17:04:48.548Z,100084.66
2023-03-26T17:08:07.961Z,100078.44
2023-03-26T17:11:08.620Z,100081.41
2023-03-26T17:14:09.518Z,100080.75
2023-03-26T17:17:27.667Z,100081.38
2023-03-26T17:21:45.804Z,100073.66
2023-03-26T17:29:51.829Z,100070.38
2023-03-26T17:33:02.863Z,100079.56
2023-03-26T17:36:33.014Z,100064.78
2023-03-26T17:40:26.791Z,100061.84
2023-03-26T17:43:41.132Z,100055.78
2023-03-26T17:46:39.519Z,100050.28
2023-03-26T17:49:34.048Z,100035.53
2023-03-26T17:52:22.082Z,100035.59
2023-03-26T17:54:57.590Z,100036.03
2023-03-26T17:57:52.136Z,100022.03
2023-03-26T18:06:41.675Z,100003.41
2023-03-26T18:09:38.375Z,99999.50
2023-03-26T18:12:34.458Z,99999.03
2023-03-26T18:15:52.899Z,100000.22
2023-03-26T18:19:24.850Z,99998.47
2023-03-26T18:23:05.759Z,100006.16
2023-03-26T18:31:30.119Z,99992.94
2023-03-26T18:39:21.599Z,99991.06
2023-03-26T18:42:38.136Z,99988.94
2023-03-26T18:45:47.339Z,99994.75
2023-03-26T18:57:40.641Z,99994.56
2023-03-26T19:00:33.085Z,99989.53
2023-03-26T19:03:13.021Z,99981.28
2023-03-26T19:05:52.290Z,99991.00
2023-03-26T19:08:50.278Z,99985.69
2023-03-26T19:11:24.804Z,99982.53
2023-03-26T19:14:34.002Z,99977.03
2023-03-26T19:17:09.546Z,99963.41
2023-03-26T19:19:52.476Z,99975.91
2023-03-26T19:22:32.125Z,99972.19
2023-03-26T19:25:13.156Z,99963.25
2023-03-26T19:27:51.889Z,99966.53
2023-03-26T19:30:45.333Z,99968.44
2023-03-26T19:33:24.045Z,99962.31
2023-03-26T19:36:24.210Z,99954.84
2023-03-26T19:38:57.179Z,99964.72
2023-03-26T19:41:37.333Z,99955.75
2023-03-26T19:44:34.449Z,99954.72
2023-03-26T19:48:46.334Z,99958.47
2023-03-26T19:51:40.154Z,99949.84
2023-03-26T19:54:17.759Z,99948.63
2023-03-26T19:56:49.459Z,99953.53
2023-03-26T19:59:20.516Z,99949.72
2023-03-26T20:01:49.938Z,99948.09
2023-03-26T20:04:24.961Z,99948.34
2023-03-26T20:06:55.764Z,99951.00
2023-03-26T20:09:27.504Z,99946.41
2023-03-26T20:12:13.431Z,99947.31
2023-03-26T20:14:47.572Z,99946.72
2023-03-26T20:17:21.359Z,99945.78
2023-03-26T20:19:53.096Z,99932.84
2023-03-26T20:22:30.155Z,99948.97
2023-03-26T20:25:04.421Z,99945.72
2023-03-26T20:27:46.031Z,99934.97
2023-03-26T20:30:37.268Z,99940.13
2023-03-26T20:33:31.637Z,99940.78
2023-03-26T20:36:33.420Z,99934.09
2023-03-26T20:39:29.662Z,99936.94
2023-03-26T20:42:59.983Z,99923.22
2023-03-26T20:46:31.662Z,99931.56
2023-03-26T20:49:15.252Z,99930.84
2023-03-26T20:52:01.077Z,99928.00
2023-03-26T20:54:38.097Z,99923.34
2023-03-26T20:57:25.080Z,99924.16
2023-03-26T21:04:05.793Z,99930.94
2023-03-26T21:07:17.218Z,99919.50
2023-03-26T21:10:33.800Z,99919.25
2023-03-26T21:13:53.687Z,99922.84
2023-03-26T21:16:49.145Z,99910.16
2023-03-26T21:19:37.659Z,99928.75
2023-03-26T21:22:54.491Z,99918.81
2023-03-26T21:26:48.870Z,99917.81
2023-03-26T21:29:50.201Z,99929.84
2023-03-26T21:32:50.585Z,99933.56
2023-03-26T21:36:05.165Z,99923.50
2023-03-26T21:39:21.023Z,99932.50
2023-03-26T21:42:26.071Z,99927.56
2023-03-26T21:45:19.148Z,99922.56
2023-03-26T21:48:24.176Z,99923.44
2023-03-26T21:51:10.228Z,99924.03
2023-03-26T21:54:13.228Z,99922.13
2023-03-26T21:57:10.257Z,99925.00
2023-03-26T21:59:53.629Z,99919.69
2023-03-26T22:03:12.860Z,99914.47
2023-03-26T22:06:36.468Z,99913.69
2023-03-26T22:09:49.023Z,99921.88
2023-03-26T22:12:41.803Z,99923.06
2023-03-26T22:15:56.197Z,99924.84
2023-03-26T22:18:57.342Z,99920.22
2023-03-26T22:21:42.125Z,99917.66
2023-03-26T22:24:37.451Z,99923.56
2023-03-26T22:27:30.792Z,99919.81
2023-03-26T22:30:12.877Z,99925.22
2023-03-26T22:33:09.798Z,99925.38
2023-03-26T22:36:22.227Z,99926.78
2023-03-26T22:39:59.401Z,99923.31
2023-03-26T22:42:59.368Z,99921.00
2023-03-26T22:45:57.395Z,99928.34
2023-03-26T22:48:55.975Z,99927.28
2023-03-26T22:54:53.106Z,99930.16
2023-03-26T22:57:45.141Z,99930.72
2023-03-26T23:01:17.373Z,99929.66
2023-03-26T23:04:49.206Z,99932.31
2023-03-26T23:08:02.410Z,99932.19
2023-03-26T23:11:13.909Z,99936.34
2023-03-26T23:18:09.988Z,99943.13
2023-03-26T23:21:22.318Z,99943.84
2023-03-26T23:24:25.065Z,99940.50
2023-03-26T23:27:27.252Z,99941.38
2023-03-26T23:30:47.825Z,99943.63
2023-03-26T23:33:54.078Z,99941.22
2023-03-26T23:36:49.306Z,99949.56
2023-03-26T23:39:49.871Z,99947.34
2023-03-26T23:42:28.399Z,99949.50
2023-03-26T23:45:08.179Z,99959.53
2023-03-26T23:47:47.335Z,99959.78
2023-03-26T23:50:20.265Z,99961.47
2023-03-26T23:52:54.448Z,99965.25
2023-03-26T23:55:26.000Z,99968.38
2023-03-26T23:58:03.690Z,99973.41
